Time;durP1;ratioP1;P1;durP2;ratioP2;P2;SDS_P1;SDS_P2;PMS_P1;PMS_P2;Temp;Humidity;BMP_temperature;BMP_pressure;BME280_temperature;BME280_humidity;BME280_pressure;Samples;Min_cycle;Max_cycle;Signal;HPM_P1;HPM_P2
2023/06/29 00:00:39;;;;;;;5.47;3.67;;;16.10;99.90;;;;;;5035710;28;20486;-87
2023/06/29 00:03:04;;;;;;;6.23;3.73;;;16.10;99.90;;;;;;5028871;28;20575;-85
2023/06/29 00:05:30;;;;;;;3.73;3.33;;;16.10;99.90;;;;;;5025534;28;20471;-84
2023/06/29 00:07:59;;;;;;;6.93;2.23;;;;;;;;;;5031562;28;20603;-86
2023/06/29 00:10:25;;;;;;;5.70;3.13;;;16.10;99.90;;;;;;5031343;28;20221;-85
2023/06/29 00:12:51;;;;;;;6.60;3.90;;;16.00;99.90;;;;;;5031283;28;20482;-86
2023/06/29 00:15:17;;;;;;;2.90;2.60;;;16.00;99.90;;;;;;5028115;28;20455;-85
2023/06/29 00:17:47;;;;;;;3.03;2.53;;;16.00;99.90;;;;;;5032423;28;20562;-87
2023/06/29 00:20:12;;;;;;;5.17;3.17;;;16.00;99.90;;;;;;5030596;28;20324;-87
2023/06/29 00:22:40;;;;;;;4.60;3.70;;;16.00;99.90;;;;;;5040452;28;20874;-86
2023/06/29 00:25:10;;;;;;;3.40;2.60;;;15.80;99.90;;;;;;5033305;28;20505;-86
2023/06/29 00:27:35;;;;;;;3.27;2.97;;;15.80;99.90;;;;;;5032581;28;20542;-87
2023/06/29 00:30:01;;;;;;;6.20;3.07;;;15.80;99.90;;;;;;5046104;28;20577;-85
2023/06/29 00:32:26;;;;;;;3.77;3.43;;;15.80;99.90;;;;;;5036396;28;20209;-84
2023/06/29 00:34:52;;;;;;;5.13;2.87;;;15.80;99.90;;;;;;5038568;28;20181;-87
2023/06/29 00:37:17;;;;;;;4.50;3.20;;;15.80;99.90;;;;;;5033056;28;20180;-86
2023/06/29 00:39:43;;;;;;;5.00;3.13;;;15.90;99.90;;;;;;5034077;28;20305;-84
2023/06/29 00:42:09;;;;;;;3.60;3.30;;;15.80;99.90;;;;;;5046315;28;20174;-85
2023/06/29 00:44:35;;;;;;;4.27;3.00;;;;;;;;;;5060703;28;20193;-86
2023/06/29 00:47:00;;;;;;;5.20;3.70;;;15.80;99.90;;;;;;5037017;28;20209;-88
2023/06/29 00:49:27;;;;;;;4.37;3.00;;;;;;;;;;5054257;28;20444;-85
2023/06/29 00:51:53;;;;;;;6.70;3.47;;;16.20;99.90;;;;;;5035104;28;20209;-86
2023/06/29 00:54:19;;;;;;;3.13;2.80;;;15.60;99.90;;;;;;5033387;28;20518;-88
2023/06/29 00:56:48;;;;;;;6.33;3.07;;;15.50;99.90;;;;;;5033583;28;20454;-86
2023/06/29 00:59:14;;;;;;;3.93;3.60;;;15.50;99.90;;;;;;5026878;28;20452;-87
2023/06/29 01:01:40;;;;;;;5.70;3.50;;;15.40;99.90;;;;;;5026179;28;21263;-86
2023/06/29 01:04:08;;;;;;;3.60;3.13;;;15.50;99.90;;;;;;5025656;28;20181;-86
2023/06/29 01:06:44;;;;;;;3.23;2.93;;;15.50;99.90;;;;;;5029466;28;20487;-86
2023/06/29 01:09:11;;;;;;;4.20;3.50;;;15.50;99.90;;;;;;5031266;28;20454;-85
2023/06/29 01:11:37;;;;;;;4.47;3.17;;;15.40;99.90;;;;;;5032288;28;20449;-86
2023/06/29 01:14:05;;;;;;;4.70;3.10;;;15.40;99.90;;;;;;5028235;28;20437;-86
2023/06/29 01:16:33;;;;;;;3.40;3.10;;;15.30;99.90;;;;;;5042296;28;21183;-87
2023/06/29 01:19:03;;;;;;;8.00;3.90;;;15.30;99.90;;;;;;5027151;28;20431;-87
2023/06/29 01:21:35;;;;;;;6.13;3.50;;;15.20;99.90;;;;;;5031265;28;20959;-88
2023/06/29 01:24:01;;;;;;;5.80;3.40;;;15.20;99.90;;;;;;5028477;28;20443;-86
2023/06/29 01:26:27;;;;;;;5.60;3.70;;;15.20;99.90;;;;;;5021970;28;21056;-87
2023/06/29 01:28:52;;;;;;;4.80;2.90;;;15.20;99.90;;;;;;5022785;28;20462;-85
2023/06/29 01:31:18;;;;;;;4.20;3.50;;;15.20;99.90;;;;;;5026069;28;20197;-87
2023/06/29 01:33:45;;;;;;;6.20;3.97;;;15.30;99.90;;;;;;5024846;28;20212;-85
2023/06/29 01:36:38;;;;;;;3.63;3.23;;;15.30;99.90;;;;;;5023749;28;20958;-87
2023/06/29 01:39:16;;;;;;;10.80;3.70;;;15.30;99.90;;;;;;5019476;28;20432;-85
2023/06/29 01:41:43;;;;;;;5.27;3.60;;;15.30;99.90;;;;;;5025638;28;20459;-85
2023/06/29 01:44:13;;;;;;;3.67;2.60;;;15.20;99.90;;;;;;5045348;28;20447;-85
2023/06/29 01:46:40;;;;;;;6.87;3.23;;;15.20;99.90;;;;;;5029104;28;20485;-86
2023/06/29 01:49:06;;;;;;;4.70;3.70;;;15.10;99.90;;;;;;5018666;28;21040;-86
2023/06/29 01:51:32;;;;;;;5.23;3.77;;;14.90;99.90;;;;;;5028774;28;21174;-85
2023/06/29 01:53:57;;;;;;;6.67;4.07;;;14.80;99.90;;;;;;5034919;28;20447;-87
2023/06/29 01:56:23;;;;;;;8.27;3.53;;;14.70;99.90;;;;;;5036800;28;20464;-86
2023/06/29 01:58:48;;;;;;;4.33;3.47;;;14.70;99.90;;;;;;5033615;28;20187;-86
2023/06/29 02:01:14;;;;;;;3.57;3.27;;;14.60;99.90;;;;;;5033781;28;20189;-88
2023/06/29 02:03:39;;;;;;;3.47;3.03;;;14.50;99.90;;;;;;5032785;28;20188;-86
2023/06/29 02:06:05;;;;;;;4.50;3.27;;;14.50;99.90;;;;;;5034908;28;20572;-87
2023/06/29 02:08:30;;;;;;;3.90;3.37;;;14.50;99.90;;;;;;5037064;28;20243;-85
2023/06/29 02:10:56;;;;;;;8.60;4.03;;;14.50;99.90;;;;;;5041890;28;20275;-84
2023/06/29 02:13:21;;;;;;;5.57;3.30;;;14.60;99.90;;;;;;5046316;28;20963;-87
2023/06/29 02:15:47;;;;;;;5.13;3.40;;;14.60;99.90;;;;;;5039187;28;20219;-85
2023/06/29 02:18:12;;;;;;;4.27;3.70;;;14.60;99.90;;;;;;5037134;28;20181;-86
2023/06/29 02:20:38;;;;;;;5.13;3.97;;;14.60;99.90;;;;;;5034936;28;20221;-86
2023/06/29 02:23:03;;;;;;;10.90;4.37;;;14.60;99.90;;;;;;5044873;28;20203;-87
2023/06/29 02:25:29;;;;;;;4.03;3.53;;;14.50;99.90;;;;;;5048639;28;20774;-86
2023/06/29 02:27:54;;;;;;;3.80;2.97;;;14.40;99.90;;;;;;5044438;28;20188;-84
2023/06/29 02:30:20;;;;;;;6.10;3.50;;;14.40;99.90;;;;;;5039531;28;20209;-87
2023/06/29 02:32:45;;;;;;;4.43;3.60;;;14.40;99.90;;;;;;5049323;28;20713;-84
2023/06/29 02:35:11;;;;;;;7.70;3.50;;;14.40;99.90;;;;;;5035340;28;20212;-87
2023/06/29 02:37:37;;;;;;;5.07;3.23;;;14.40;99.90;;;;;;5032872;28;20192;-85
2023/06/29 02:40:02;;;;;;;10.40;3.53;;;14.40;99.90;;;;;;5049293;28;20204;-85
2023/06/29 02:42:28;;;;;;;4.00;3.13;;;14.40;99.90;;;;;;5039977;28;20181;-84
2023/06/29 02:44:53;;;;;;;5.47;3.63;;;14.50;99.90;;;;;;5036102;28;20996;-85
2023/06/29 02:47:19;;;;;;;3.33;2.90;;;14.40;99.90;;;;;;5037821;28;20189;-84
2023/06/29 02:49:45;;;;;;;4.63;3.47;;;;;;;;;;5031285;28;20196;-85
2023/06/29 02:52:10;;;;;;;3.53;3.23;;;14.40;99.90;;;;;;5052392;28;20204;-83
2023/06/29 02:54:36;;;;;;;5.53;2.77;;;;;;;;;;5033102;28;20446;-86
2023/06/29 02:57:02;;;;;;;5.03;3.43;;;14.30;99.90;;;;;;5033397;28;20554;-86
2023/06/29 02:59:27;;;;;;;4.90;3.50;;;14.30;99.90;;;;;;5033383;28;20438;-86
2023/06/29 03:01:53;;;;;;;3.77;3.47;;;14.30;99.90;;;;;;5031246;28;20786;-86
2023/06/29 03:04:18;;;;;;;6.27;3.20;;;15.50;99.90;;;;;;5028401;28;20369;-85
2023/06/29 03:06:44;;;;;;;4.70;3.00;;;14.30;99.90;;;;;;5028258;28;20205;-86
2023/06/29 03:09:09;;;;;;;3.70;3.23;;;14.40;99.90;;;;;;5026982;28;20189;-85
2023/06/29 03:11:35;;;;;;;3.40;3.10;;;14.40;99.90;;;;;;5027907;28;20182;-86
2023/06/29 03:14:00;;;;;;;6.67;3.70;;;14.40;99.90;;;;;;5029230;28;20269;-85
2023/06/29 03:16:26;;;;;;;3.27;2.73;;;14.40;99.90;;;;;;5020549;28;20745;-86
2023/06/29 03:18:51;;;;;;;4.63;3.37;;;14.40;99.90;;;;;;5031867;28;20192;-87
2023/06/29 03:21:19;;;;;;;3.77;3.40;;;14.40;99.90;;;;;;5031881;28;20764;-83
2023/06/29 03:23:45;;;;;;;3.80;3.20;;;14.40;99.90;;;;;;5029500;28;20187;-83
2023/06/29 03:26:11;;;;;;;3.50;3.20;;;13.80;99.90;;;;;;5026469;28;20535;-85
2023/06/29 03:28:37;;;;;;;8.60;3.93;;;14.30;99.90;;;;;;5028369;28;20846;-88
2023/06/29 03:31:02;;;;;;;6.10;4.60;;;14.20;99.90;;;;;;5043004;28;20534;-84
2023/06/29 03:33:27;;;;;;;3.73;3.43;;;14.30;99.90;;;;;;5032289;28;20727;-84
2023/06/29 03:35:53;;;;;;;6.50;4.03;;;14.40;99.90;;;;;;5029653;28;20204;-87
2023/06/29 03:38:18;;;;;;;5.53;3.70;;;14.40;99.90;;;;;;5029931;28;20234;-85
2023/06/29 03:40:44;;;;;;;7.13;4.30;;;14.50;99.90;;;;;;5030439;28;20189;-85
2023/06/29 03:43:09;;;;;;;6.03;3.70;;;14.60;99.90;;;;;;5030074;28;20193;-85
2023/06/29 03:45:35;;;;;;;3.43;3.13;;;;;;;;;;5030449;28;20255;-84
2023/06/29 03:48:01;;;;;;;4.83;3.47;;;14.80;99.90;;;;;;5050823;28;20200;-86
2023/06/29 03:50:27;;;;;;;5.87;3.23;;;;;;;;;;5034874;28;20540;-85
2023/06/29 03:52:52;;;;;;;3.93;3.53;;;14.90;99.90;;;;;;5030387;28;20219;-84
2023/06/29 03:55:18;;;;;;;4.57;3.57;;;15.00;99.90;;;;;;5023344;28;20459;-87
2023/06/29 03:57:43;;;;;;;3.90;3.30;;;15.10;99.90;;;;;;5025405;28;20186;-86
2023/06/29 04:00:09;;;;;;;4.20;3.80;;;15.30;99.90;;;;;;5022469;28;20191;-83
2023/06/29 04:02:35;;;;;;;8.00;4.97;;;15.30;99.90;;;;;;5021590;28;20193;-84
2023/06/29 04:05:00;;;;;;;5.87;5.30;;;15.40;99.90;;;;;;5025333;28;20712;-86
2023/06/29 04:07:26;;;;;;;6.97;4.97;;;15.40;99.90;;;;;;5020051;28;20192;-84
2023/06/29 04:09:52;;;;;;;7.67;6.00;;;;;;;;;;5028286;28;20181;-86
2023/06/29 04:12:18;;;;;;;8.20;4.90;;;15.60;99.90;;;;;;5021223;28;20486;-83
2023/06/29 04:14:45;;;;;;;5.67;4.73;;;15.80;99.90;;;;;;5043093;28;20470;-85
2023/06/29 04:17:11;;;;;;;5.23;4.60;;;15.90;99.90;;;;;;5029685;28;20174;-85
2023/06/29 04:19:36;;;;;;;7.00;4.70;;;16.10;99.90;;;;;;5036166;28;20509;-86
2023/06/29 04:22:02;;;;;;;6.67;4.67;;;17.30;99.90;;;;;;5037135;28;20200;-86
2023/06/29 04:24:28;;;;;;;7.70;4.93;;;19.30;99.90;;;;;;5039283;28;20212;-85
2023/06/29 04:26:53;;;;;;;4.83;4.37;;;21.00;99.90;;;;;;5032723;28;20230;-87
2023/06/29 04:29:19;;;;;;;5.93;4.07;;;24.00;99.90;;;;;;5037333;28;20173;-85
2023/06/29 04:31:45;;;;;;;5.60;4.50;;;;;;;;;;5037438;28;20724;-85
2023/06/29 04:34:13;;;;;;;5.20;4.10;;;;;;;;;;5039157;28;20177;-85
2023/06/29 04:36:38;;;;;;;6.17;3.77;;;26.90;99.90;;;;;;5035000;28;20442;-87
2023/06/29 04:39:04;;;;;;;4.50;4.10;;;28.00;99.90;;;;;;5042195;28;20439;-87
2023/06/29 04:41:32;;;;;;;4.77;4.27;;;28.90;94.60;;;;;;5034214;28;20620;-88
2023/06/29 04:43:59;;;;;;;5.13;4.60;;;29.20;87.90;;;;;;5042692;28;20207;-83
2023/06/29 04:46:28;;;;;;;9.57;6.60;;;29.10;88.50;;;;;;5051723;28;20588;-85
2023/06/29 04:48:54;;;;;;;4.03;3.70;;;;;;;;;;5044042;28;21107;-86
2023/06/29 04:51:19;;;;;;;4.17;3.60;;;28.60;85.80;;;;;;5032827;28;20470;-88
2023/06/29 04:53:45;;;;;;;6.70;4.80;;;;;;;;;;5034964;28;20550;-86
2023/06/29 04:56:11;;;;;;;6.40;4.27;;;;;;;;;;5035518;28;20209;-87
2023/06/29 04:58:39;;;;;;;5.87;4.23;;;30.10;76.50;;;;;;5030547;28;20452;-86
2023/06/29 05:01:10;;;;;;;5.90;4.60;;;30.60;75.10;;;;;;5021943;28;20535;-85
2023/06/29 05:03:36;;;;;;;7.23;4.20;;;;;;;;;;5024793;28;20958;-86
2023/06/29 05:06:02;;;;;;;6.83;4.57;;;;;;;;;;5023729;28;21000;-85
2023/06/29 05:08:28;;;;;;;5.57;4.10;;;;;;;;;;5020004;28;20985;-85
2023/06/29 05:10:54;;;;;;;6.30;5.33;;;;;;;;;;5032597;28;20474;-84
2023/06/29 05:13:20;;;;;;;6.67;4.30;;;;;;;;;;5044883;28;20565;-84
2023/06/29 05:15:48;;;;;;;4.63;4.33;;;;;;;;;;5027180;28;20459;-86
2023/06/29 05:18:14;;;;;;;6.07;5.30;;;;;;;;;;5028481;28;20952;-86
2023/06/29 05:20:40;;;;;;;6.13;5.53;;;;;;;;;;5034451;28;20432;-85
2023/06/29 05:23:09;;;;;;;6.13;5.63;;;;;;;;;;5031379;28;20439;-84
2023/06/29 05:25:35;;;;;;;6.90;6.20;;;;;;;;;;5028005;28;20456;-83
2023/06/29 05:28:01;;;;;;;7.80;7.10;;;;;;;;;;5028595;28;20493;-84
2023/06/29 05:30:27;;;;;;;7.57;6.23;;;;;;;;;;5034679;28;20432;-84
2023/06/29 05:32:53;;;;;;;7.43;6.87;;;;;;;;;;5048684;28;20472;-85
2023/06/29 05:35:19;;;;;;;8.40;6.90;;;;;;;;;;5035616;28;20457;-84
2023/06/29 05:37:47;;;;;;;7.30;6.70;;;34.60;52.40;;;;;;5022773;28;20523;-85
2023/06/29 05:40:13;;;;;;;6.40;5.97;;;;;;;;;;5030765;28;20428;-85
2023/06/29 05:42:39;;;;;;;7.93;7.33;;;;;;;;;;5028344;28;20438;-84
2023/06/29 05:45:05;;;;;;;7.17;6.50;;;35.80;50.60;;;;;;5026251;28;20507;-85
2023/06/29 05:47:32;;;;;;;6.80;6.40;;;;;;;;;;5027926;28;20726;-86
2023/06/29 05:49:58;;;;;;;7.60;7.10;;;;;;;;;;5027330;28;20434;-87
2023/06/29 05:52:24;;;;;;;8.97;7.80;;;;;;;;;;5025154;28;20463;-85
2023/06/29 05:54:50;;;;;;;10.13;7.67;;;;;;;;;;5026370;28;20447;-86
2023/06/29 05:57:16;;;;;;;8.23;7.63;;;;;;;;;;5021849;28;20445;-86
2023/06/29 05:59:42;;;;;;;10.27;7.93;;;;;;;;;;5036107;28;20650;-87
2023/06/29 06:02:09;;;;;;;8.67;7.90;;;;;;;;;;5040542;28;20537;-87
2023/06/29 06:04:35;;;;;;;8.80;8.20;;;;;;;;;;5038204;28;20514;-86
2023/06/29 06:07:01;;;;;;;10.57;9.00;;;;;;;;;;5045376;28;20490;-85
2023/06/29 06:09:27;;;;;;;10.10;9.23;;;;;;;;;;5042847;28;20458;-87
2023/06/29 06:11:54;;;;;;;8.93;8.30;;;;;;;;;;5044017;28;20431;-87
2023/06/29 06:14:20;;;;;;;10.07;9.40;;;;;;;;;;5043739;28;20376;-87
2023/06/29 06:16:46;;;;;;;10.17;9.30;;;;;;;;;;5039812;28;20930;-87
2023/06/29 06:19:12;;;;;;;9.10;8.60;;;;;;;;;;5043073;28;20846;-86
2023/06/29 06:21:38;;;;;;;10.03;9.17;;;;;;;;;;5035610;28;20429;-84
2023/06/29 06:24:04;;;;;;;11.83;9.00;;;;;;;;;;5042535;28;20514;-83
2023/06/29 06:26:30;;;;;;;9.70;9.00;;;;;;;;;;5046179;28;20444;-87
2023/06/29 06:28:56;;;;;;;10.27;9.57;;;;;;;;;;5042709;28;20446;-85
2023/06/29 06:31:22;;;;;;;9.97;9.27;;;;;;;;;;5041924;28;20466;-88
2023/06/29 06:33:52;;;;;;;9.10;8.60;;;;;;;;;;5038669;28;20291;-88
2023/06/29 06:36:20;;;;;;;9.57;8.97;;;;;;;;;;5055013;28;20535;-89
2023/06/29 06:38:46;;;;;;;9.07;8.37;;;;;;;;;;5042900;28;20430;-88
2023/06/29 06:41:12;;;;;;;8.63;8.13;;;;;;;;;;5063862;28;20427;-83
2023/06/29 06:43:37;;;;;;;9.30;8.60;;;;;;;;;;5042583;28;20259;-86
2023/06/29 06:46:03;;;;;;;8.53;8.00;;;;;;;;;;5043242;28;20212;-86
2023/06/29 06:48:29;;;;;;;13.00;9.37;;;;;;;;;;5040704;28;20532;-86
2023/06/29 06:50:55;;;;;;;10.40;9.50;;;;;;;;;;5038834;28;20207;-88
2023/06/29 06:53:21;;;;;;;9.50;8.90;;;;;;;;;;5040092;28;20205;-86
2023/06/29 06:55:47;;;;;;;9.70;9.00;;;;;;;;;;5042928;28;20475;-87
2023/06/29 06:58:13;;;;;;;10.07;9.23;;;;;;;;;;5037457;28;20434;-87
2023/06/29 07:00:40;;;;;;;8.73;8.03;;;;;;;;;;5038478;28;20516;-89
2023/06/29 07:03:05;;;;;;;9.80;9.10;;;;;;;;;;5053492;28;20881;-85
2023/06/29 07:05:31;;;;;;;8.93;8.33;;;;;;;;;;5041491;28;20466;-84
2023/06/29 07:07:57;;;;;;;9.40;8.70;;;;;;;;;;5040572;28;21171;-86
2023/06/29 07:10:23;;;;;;;9.57;8.77;;;;;;;;;;5042517;28;20451;-87
2023/06/29 07:12:49;;;;;;;8.80;8.20;;;;;;;;;;5041007;28;20474;-88
2023/06/29 07:15:16;;;;;;;8.77;7.77;;;;;;;;;;5038558;28;20438;-87
2023/06/29 07:17:42;;;;;;;10.57;8.07;;;;;;;;;;5039271;28;21567;-86
2023/06/29 07:20:08;;;;;;;8.90;8.10;;;41.30;34.10;;;;;;5041464;28;20438;-86
2023/06/29 07:22:35;;;;;;;7.67;7.07;;;;;;;;;;5046453;28;20451;-88
2023/06/29 07:25:01;;;;;;;8.93;8.07;;;;;;;;;;5046220;28;20923;-83
2023/06/29 07:27:26;;;;;;;7.67;7.07;;;;;;;;;;5040184;28;20439;-86
2023/06/29 07:29:53;;;;;;;7.77;7.23;;;;;;;;;;5056723;28;21442;-87
2023/06/29 07:32:19;;;;;;;8.57;8.07;;;;;;;;;;5058822;28;20540;-88
2023/06/29 07:34:45;;;;;;;8.60;8.10;;;;;;;;;;5037483;28;20492;-86
2023/06/29 07:37:11;;;;;;;8.20;7.50;;;;;;;;;;5038304;28;20287;-87
2023/06/29 07:39:37;;;;;;;8.20;7.70;;;;;;;;;;5039877;28;20187;-87
2023/06/29 07:42:03;;;;;;;9.20;8.33;;;42.20;30.00;;;;;;5042614;28;20188;-88
2023/06/29 07:44:29;;;;;;;8.00;7.50;;;;;;;;;;5037941;28;20300;-88
2023/06/29 07:46:55;;;;;;;8.10;7.70;;;;;;;;;;5035024;28;20216;-88
2023/06/29 07:49:21;;;;;;;7.60;7.30;;;;;;;;;;5037924;28;20439;-87
2023/06/29 07:51:48;;;;;;;8.30;7.77;;;;;;;;;;5036387;28;20526;-86
2023/06/29 07:54:14;;;;;;;8.57;7.97;;;;;;;;;;5036309;28;20442;-86
2023/06/29 07:56:39;;;;;;;10.27;8.13;;;;;;;;;;5048128;28;20882;-86
2023/06/29 07:59:05;;;;;;;7.50;7.03;;;;;;;;;;5042334;28;20442;-85
2023/06/29 08:01:34;;;;;;;7.57;7.17;;;39.10;31.20;;;;;;5037889;28;20501;-87
2023/06/29 08:03:59;;;;;;;6.80;6.40;;;36.50;33.20;;;;;;5038748;28;20816;-84
2023/06/29 08:06:26;;;;;;;7.20;6.70;;;34.40;34.90;;;;;;5036014;28;20472;-85
2023/06/29 08:08:52;;;;;;;6.23;5.73;;;;;;;;;;5041331;28;20207;-86
2023/06/29 08:11:18;;;;;;;5.40;5.00;;;;;;;;;;5035940;28;20427;-86
2023/06/29 08:13:43;;;;;;;5.30;5.00;;;31.10;39.50;;;;;;5034162;28;21144;-85
2023/06/29 08:16:09;;;;;;;6.10;5.10;;;31.50;40.80;;;;;;5050723;28;20445;-87
2023/06/29 08:18:34;;;;;;;6.83;5.70;;;32.10;41.30;;;;;;5045385;28;20680;-86
2023/06/29 08:21:01;;;;;;;5.53;5.23;;;;;;;;;;5050938;28;20263;-85
2023/06/29 08:23:26;;;;;;;6.23;5.83;;;32.70;38.80;;;;;;5042726;28;20277;-85
2023/06/29 08:25:52;;;;;;;5.90;5.40;;;33.10;39.70;;;;;;5033652;28;21235;-84
2023/06/29 08:28:18;;;;;;;8.23;5.37;;;;;;;;;;5033923;28;20190;-86
2023/06/29 08:30:44;;;;;;;5.70;5.30;;;33.90;38.90;;;;;;5040101;28;20194;-87
2023/06/29 08:33:09;;;;;;;5.57;5.10;;;;;;;;;;5036694;28;20816;-84
2023/06/29 08:35:35;;;;;;;6.00;5.70;;;;;;;;;;5035743;28;20206;-86
2023/06/29 08:38:01;;;;;;;6.30;5.80;;;;;;;;;;5039403;28;20421;-85
2023/06/29 08:40:33;;;;;;;6.07;5.77;;;36.40;33.50;;;;;;5040336;28;20485;-86
2023/06/29 08:42:59;;;;;;;6.83;6.27;;;;;;;;;;5035990;28;20476;-86
2023/06/29 08:45:25;;;;;;;6.47;5.90;;;;;;;;;;5038134;28;20463;-84
2023/06/29 08:47:53;;;;;;;6.70;6.10;;;37.50;33.20;;;;;;5047481;28;20435;-87
2023/06/29 08:50:25;;;;;;;6.30;5.70;;;36.80;33.50;;;;;;5034670;28;20447;-86
2023/06/29 08:52:52;;;;;;;6.10;5.60;;;36.40;34.20;;;;;;5032555;28;20454;-87
2023/06/29 08:55:18;;;;;;;7.00;6.20;;;;;;;;;;5036266;28;20458;-86
2023/06/29 08:57:44;;;;;;;7.17;6.30;;;;;;;;;;5041321;28;20435;-87
2023/06/29 09:00:10;;;;;;;6.77;6.17;;;35.80;33.40;;;;;;5039319;28;20517;-87
2023/06/29 09:02:36;;;;;;;5.93;5.63;;;;;;;;;;5037985;28;20441;-85
2023/06/29 09:05:03;;;;;;;6.23;5.50;;;35.90;34.40;;;;;;5034469;28;20437;-86
2023/06/29 09:07:29;;;;;;;6.00;5.50;;;;;;;;;;5033267;28;20445;-85
2023/06/29 09:09:55;;;;;;;6.27;5.70;;;;;;;;;;5034754;28;20442;-86
2023/06/29 09:12:21;;;;;;;5.43;5.13;;;;;;;;;;5035945;28;20825;-86
2023/06/29 09:14:47;;;;;;;6.10;5.70;;;;;;;;;;5045123;28;20591;-88
2023/06/29 09:17:15;;;;;;;6.07;5.57;;;37.00;32.80;;;;;;5056898;28;20507;-86
2023/06/29 09:19:42;;;;;;;6.37;5.97;;;;;;;;;;5039478;28;20878;-86
2023/06/29 09:22:08;;;;;;;5.60;5.20;;;;;;;;;;5038136;28;20426;-86
2023/06/29 09:24:35;;;;;;;6.70;6.40;;;;;;;;;;5035374;28;20438;-87
2023/06/29 09:27:01;;;;;;;6.47;6.13;;;;;;;;;;5034808;28;20546;-85
2023/06/29 09:29:27;;;;;;;6.97;6.47;;;;;;;;;;5035639;28;20443;-86
2023/06/29 09:31:57;;;;;;;5.90;5.60;;;36.10;32.10;;;;;;5039883;28;20432;-86
2023/06/29 09:34:25;;;;;;;5.80;5.47;;;34.60;34.90;;;;;;5037130;28;20433;-84
2023/06/29 09:36:51;;;;;;;5.80;5.40;;;;;;;;;;5039179;28;20458;-85
2023/06/29 09:39:18;;;;;;;5.53;5.13;;;;;;;;;;5040310;28;20425;-85
2023/06/29 09:41:44;;;;;;;6.57;6.13;;;;;;;;;;5039864;28;20429;-86
2023/06/29 09:44:10;;;;;;;5.60;5.30;;;;;;;;;;5033655;28;20456;-85
2023/06/29 09:46:40;;;;;;;6.57;6.17;;;35.90;34.50;;;;;;5035756;28;20453;-86
2023/06/29 09:49:08;;;;;;;6.23;5.83;;;37.90;32.70;;;;;;5036647;28;20437;-87
2023/06/29 09:51:34;;;;;;;7.50;7.10;;;;;;;;;;5036213;28;20431;-88
2023/06/29 09:54:02;;;;;;;7.00;6.40;;;36.50;32.50;;;;;;5042697;28;20462;-84
2023/06/29 09:56:30;;;;;;;6.60;6.10;;;36.70;33.10;;;;;;5042280;28;21343;-86
2023/06/29 09:58:56;;;;;;;7.03;6.73;;;34.90;33.20;;;;;;5044123;28;20440;-85
2023/06/29 10:01:24;;;;;;;7.50;6.93;;;;;;;;;;5043940;28;20428;-86
2023/06/29 10:03:50;;;;;;;6.77;6.13;;;;;;;;;;5044920;28;20457;-85
2023/06/29 10:06:25;;;;;;;6.53;6.13;;;35.70;33.70;;;;;;5040851;28;20468;-86
2023/06/29 10:08:55;;;;;;;6.20;5.90;;;34.50;35.20;;;;;;5042085;28;20189;-86
2023/06/29 10:11:25;;;;;;;7.30;6.40;;;34.40;37.30;;;;;;5041133;28;20478;-86
2023/06/29 10:13:53;;;;;;;6.07;5.67;;;33.30;36.30;;;;;;5047876;28;20466;-86
2023/06/29 10:16:21;;;;;;;6.80;6.40;;;;;;;;;;5032428;28;20501;-86
2023/06/29 10:18:49;;;;;;;7.70;6.57;;;34.50;36.20;;;;;;5045099;28;20430;-86
2023/06/29 10:21:15;;;;;;;6.63;6.23;;;;;;;;;;5044033;28;20460;-86
2023/06/29 10:23:43;;;;;;;7.20;6.50;;;35.30;35.40;;;;;;5034736;28;20560;-85
2023/06/29 10:26:10;;;;;;;8.03;6.60;;;34.70;36.00;;;;;;5033404;28;20469;-85
2023/06/29 10:28:36;;;;;;;7.47;6.90;;;;;;;;;;5036791;28;20442;-85
2023/06/29 10:31:02;;;;;;;6.80;6.30;;;;;;;;;;5042340;28;20435;-86
2023/06/29 10:33:28;;;;;;;6.43;5.93;;;33.00;37.60;;;;;;5044476;28;21048;-87
2023/06/29 10:35:58;;;;;;;6.07;5.57;;;31.70;39.40;;;;;;5040047;28;20970;-86
2023/06/29 10:38:42;;;;;;;5.87;5.37;;;31.50;41.20;;;;;;5058077;28;20191;-86
2023/06/29 10:41:27;;;;;;;6.03;5.30;;;31.40;41.40;;;;;;5042514;28;20454;-87
2023/06/29 10:43:53;;;;;;;9.00;5.20;;;31.30;42.20;;;;;;5041537;28;20457;-86
2023/06/29 10:46:48;;;;;;;5.47;4.43;;;30.60;42.30;;;;;;5038211;28;20464;-86
2023/06/29 10:49:28;;;;;;;4.83;4.33;;;29.50;44.10;;;;;;5037951;28;20444;-87
2023/06/29 10:52:04;;;;;;;4.20;3.80;;;28.50;44.90;;;;;;5044359;28;20431;-85
2023/06/29 10:54:30;;;;;;;7.60;4.47;;;28.30;46.40;;;;;;5041094;28;20957;-85
2023/06/29 10:57:07;;;;;;;4.50;4.10;;;27.70;47.00;;;;;;5040538;28;20528;-85
2023/06/29 10:59:34;;;;;;;3.60;3.30;;;27.60;47.80;;;;;;5040975;28;20501;-85
2023/06/29 11:02:01;;;;;;;4.17;3.80;;;27.70;48.20;;;;;;5037854;28;20465;-86
2023/06/29 11:04:28;;;;;;;3.50;3.23;;;27.60;48.40;;;;;;5036829;28;20516;-86
2023/06/29 11:06:54;;;;;;;6.80;3.83;;;;;;;;;;5031493;28;20576;-86
2023/06/29 11:09:20;;;;;;;5.43;3.33;;;;;;;;;;5037969;28;20512;-85
2023/06/29 11:11:48;;;;;;;4.80;3.20;;;26.70;54.60;;;;;;5043080;28;20470;-84
2023/06/29 11:14:14;;;;;;;3.20;2.80;;;26.70;55.10;;;;;;5043363;28;20437;-86
2023/06/29 11:16:40;;;;;;;7.40;3.90;;;26.30;58.50;;;;;;5046067;28;20505;-87
2023/06/29 11:19:06;;;;;;;3.37;2.73;;;;;;;;;;5051736;28;20637;-86
2023/06/29 11:21:32;;;;;;;3.93;3.63;;;26.00;56.20;;;;;;5040087;28;20545;-85
2023/06/29 11:23:58;;;;;;;2.90;2.60;;;26.10;57.20;;;;;;5039604;28;20529;-85
2023/06/29 11:26:24;;;;;;;3.23;3.03;;;;;;;;;;5038438;28;20214;-83
2023/06/29 11:28:51;;;;;;;5.03;3.03;;;26.70;55.10;;;;;;5040859;28;20246;-84
2023/06/29 11:31:17;;;;;;;5.60;3.20;;;27.20;53.90;;;;;;5047943;28;20467;-84
2023/06/29 11:33:53;;;;;;;4.17;3.07;;;27.70;53.30;;;;;;5042785;28;20553;-83
2023/06/29 11:36:29;;;;;;;4.40;3.00;;;28.10;53.10;;;;;;5043038;28;20220;-85
2023/06/29 11:39:09;;;;;;;2.80;2.50;;;29.00;52.20;;;;;;5044314;28;20424;-87
2023/06/29 11:41:39;;;;;;;5.33;3.90;;;29.10;51.00;;;;;;5056920;28;20462;-85
2023/06/29 11:44:06;;;;;;;3.50;3.20;;;28.60;51.20;;;;;;5042192;28;20546;-86
2023/06/29 11:46:33;;;;;;;2.97;2.67;;;28.50;51.70;;;;;;5039138;28;20540;-87
2023/06/29 11:48:59;;;;;;;3.43;3.13;;;28.10;52.20;;;;;;5041152;28;20448;-86
2023/06/29 11:51:26;;;;;;;4.17;3.63;;;28.40;51.60;;;;;;5044376;28;20466;-86
2023/06/29 11:53:58;;;;;;;3.30;2.97;;;28.20;51.20;;;;;;5044259;28;21010;-85
2023/06/29 11:56:34;;;;;;;5.93;3.17;;;28.00;51.90;;;;;;5042002;28;20463;-86
2023/06/29 11:59:18;;;;;;;4.17;3.33;;;27.40;52.20;;;;;;5037102;28;20514;-85
2023/06/29 12:01:44;;;;;;;6.30;3.77;;;27.70;52.90;;;;;;5036314;28;20478;-86
2023/06/29 12:04:12;;;;;;;4.10;3.70;;;28.10;52.00;;;;;;5037357;28;20476;-84
2023/06/29 12:06:49;;;;;;;4.37;3.43;;;27.80;52.40;;;;;;5036174;28;20462;-87
2023/06/29 12:09:15;;;;;;;4.03;2.93;;;27.70;53.10;;;;;;5041399;28;20541;-86
2023/06/29 12:11:40;;;;;;;3.90;3.50;;;27.80;53.90;;;;;;5040744;28;20521;-86
2023/06/29 12:14:09;;;;;;;8.10;3.53;;;27.50;53.50;;;;;;5041622;28;20205;-85
2023/06/29 12:16:40;;;;;;;4.17;3.30;;;27.20;54.50;;;;;;5034583;28;20201;-84
2023/06/29 12:19:12;;;;;;;4.83;3.20;;;27.00;54.30;;;;;;5038254;28;20438;-85
2023/06/29 12:21:38;;;;;;;3.30;2.87;;;26.70;55.40;;;;;;5040268;28;20439;-85
2023/06/29 12:24:04;;;;;;;4.03;3.53;;;26.70;55.50;;;;;;5036751;28;20493;-86
2023/06/29 12:26:31;;;;;;;4.20;3.37;;;26.80;54.90;;;;;;5034829;28;20208;-84
2023/06/29 12:28:56;;;;;;;2.77;2.57;;;27.10;56.70;;;;;;5036808;28;20533;-87
2023/06/29 12:31:29;;;;;;;5.47;3.23;;;27.30;56.20;;;;;;5040525;28;20522;-84
2023/06/29 12:33:54;;;;;;;7.03;3.77;;;27.60;54.00;;;;;;5038533;28;20235;-85
2023/06/29 12:36:20;;;;;;;3.87;3.37;;;27.80;54.20;;;;;;5049776;28;21106;-84
2023/06/29 12:38:50;;;;;;;6.87;4.07;;;27.90;54.40;;;;;;5039985;28;20181;-83
2023/06/29 12:41:15;;;;;;;4.40;3.30;;;28.40;53.90;;;;;;5041967;28;22209;-85
2023/06/29 12:43:41;;;;;;;5.33;3.50;;;28.50;53.00;;;;;;5051669;28;20455;-87
2023/06/29 12:46:11;;;;;;;4.43;3.90;;;29.00;51.90;;;;;;5038312;28;20208;-87
2023/06/29 12:48:37;;;;;;;3.33;3.07;;;29.60;51.10;;;;;;5056047;28;20386;-87
2023/06/29 12:51:03;;;;;;;4.27;3.90;;;29.80;50.10;;;;;;5041268;28;20424;-86
2023/06/29 12:53:29;;;;;;;4.27;3.90;;;29.70;49.80;;;;;;5051955;28;20465;-85
2023/06/29 12:55:55;;;;;;;5.40;3.90;;;29.40;49.60;;;;;;5040185;28;20236;-86
2023/06/29 12:58:21;;;;;;;4.47;3.47;;;29.40;51.10;;;;;;5036309;28;20455;-86
2023/06/29 13:00:47;;;;;;;5.73;3.90;;;29.40;51.20;;;;;;5039126;28;20907;-85
2023/06/29 13:03:14;;;;;;;3.50;3.00;;;;;;;;;;5034442;28;20444;-85
2023/06/29 13:05:49;;;;;;;4.20;3.80;;;28.80;51.40;;;;;;5047128;28;20209;-86
2023/06/29 13:08:15;;;;;;;4.87;3.67;;;;;;;;;;5039180;28;20809;-85
2023/06/29 13:10:41;;;;;;;9.60;3.53;;;29.00;51.70;;;;;;5034579;28;21184;-85
2023/06/29 13:13:07;;;;;;;4.40;3.70;;;;;;;;;;5036438;28;20450;-85
2023/06/29 13:15:33;;;;;;;11.10;3.70;;;;;;;;;;5035748;28;20218;-86
2023/06/29 13:17:58;;;;;;;3.90;3.50;;;29.00;50.90;;;;;;5041418;28;20464;-83
2023/06/29 13:20:24;;;;;;;4.20;3.87;;;29.10;51.80;;;;;;5034960;28;20427;-84
2023/06/29 13:22:50;;;;;;;6.57;3.40;;;;;;;;;;5035405;28;20198;-85
2023/06/29 13:25:16;;;;;;;3.87;3.40;;;;;;;;;;5034307;28;20262;-86